Darstellungsparameter: Aktuell verwendete Einstellungen:
Skalierung der Graphiken ... ?
xyx+y,   Skalierungsfaktor:      Skalierung: Modus: x, Faktor: 1
Darstellungszeitraum ... ?
Vom - - bis: - -   Zeitraum: 08.08.2010 - 08.08.2010
Min/Max/Avg-Anzeige ... ?
Zeige MMA aktuell
Zeige MMA Monat
Zeige MMA alles
Zeige --A aktuell
Zeige --A Monat
Zeige --A alles
Keine MMA-Anzeige
MMA:
Average (ber die Originaldaten)
MMA-Basis: 08.08.2010 - 08.08.2010
Quicknavigation für Darstellung... ?
Tage:      1T, 2T, 3T, 5T -1T -2T -3T -5T +1T +2T +3T +5T
Wochen: 1W, 2W, 3W -1W -2W -3W +1W +2W +3W
Monate: 1M, 3M, 6M -1M -3M -6M +1M +3M +6M
Jahre:    1J, 3J, 5J, 10J -1J -3J -5J -10J +1J +3J +5J +10J
Nutze für die Darstellung ... ?
Originaldaten oder Mittelwerte auf ...
Stundenbasis Tagesbasis Wochenbasis
Monatsbasis Jahresbasis      Datenbasis: Original-Daten
Darstellen als:
Statistik (Auto) Statistik J:M      Darstellung:
Zur Graphik,    zurück zur Übersicht aller Sensoren.
 
Tabellarische Datenbersicht: ?
 
Sensor: Nr:Datum:Temp:Abs-Feuchte:Windchill:Wind:
Aussen-T/F 1 08-08-2010 00:02:02 21.3 C 8.02 g/m*3 21.3 C 0 km/h
2 08-08-2010 00:14:02 21.2 C 7.78 g/m*3 21.2 C 0 km/h
3 08-08-2010 00:26:02 21.1 C 8.11 g/m*3 21.1 C 0 km/h
4 08-08-2010 00:38:01 20.9 C 8.38 g/m*3 20.9 C 0 km/h
5 08-08-2010 00:50:03 20.7 C 8.28 g/m*3 20.7 C 0 km/h
6 08-08-2010 01:02:02 20.4 C 8.31 g/m*3 20.4 C 0 km/h
7 08-08-2010 01:14:02 20.4 C 8.14 g/m*3 20.4 C 0 km/h
8 08-08-2010 01:26:02 20.1 C 8.34 g/m*3 20.1 C 0 km/h
9 08-08-2010 01:38:02 19.9 C 8.59 g/m*3 19.9 C 0 km/h
10 08-08-2010 01:50:02 20 C 8.81 g/m*3 20 C 0 km/h
11 08-08-2010 02:02:01 20.1 C 8.87 g/m*3 20.1 C 0 km/h
12 08-08-2010 02:14:01 20.1 C 9.04 g/m*3 20.1 C 0 km/h
13 08-08-2010 02:26:02 19.7 C 9.68 g/m*3 19.7 C 0 km/h
14 08-08-2010 02:38:02 19.6 C 9.79 g/m*3 19.6 C 0 km/h
15 08-08-2010 02:50:01 19.6 C 9.79 g/m*3 19.6 C 0 km/h
16 08-08-2010 03:02:01 19.3 C 9.79 g/m*3 19.3 C 0 km/h
17 08-08-2010 03:14:02 18.7 C 9.93 g/m*3 18.7 C 0 km/h
18 08-08-2010 03:26:02 18.5 C 10.13 g/m*3 18.5 C 0 km/h
19 08-08-2010 03:38:01 18.4 C 10.07 g/m*3 18.4 C 0 km/h
20 08-08-2010 03:50:01 18.5 C 10.13 g/m*3 18.5 C 0 km/h
21 08-08-2010 04:02:01 18.5 C 10.13 g/m*3 18.5 C 0 km/h
22 08-08-2010 04:14:01 18.4 C 10.38 g/m*3 18.4 C 0 km/h
23 08-08-2010 04:26:02 18.3 C 10.48 g/m*3 18.3 C 0 km/h
24 08-08-2010 04:38:01 18.3 C 10.48 g/m*3 18.3 C 0 km/h
25 08-08-2010 04:50:02 18.3 C 10.48 g/m*3 18.3 C 0 km/h
Sensor: Nr:Datum:Temp:Abs-Feuchte:Windchill:Wind:
Aussen-T/F 26 08-08-2010 05:02:01 18.2 C 10.57 g/m*3 18.2 C 0 km/h
27 08-08-2010 05:14:01 17.7 C 11.16 g/m*3 17.7 C 0 km/h
28 08-08-2010 05:26:02 17.5 C 11.48 g/m*3 17.5 C 0 km/h
29 08-08-2010 05:38:01 17.4 C 12 g/m*3 17.4 C 0 km/h
30 08-08-2010 05:50:02 17 C 12.01 g/m*3 17 C 0 km/h
31 08-08-2010 06:02:01 16.9 C 12.37 g/m*3 16.9 C 0 km/h
32 08-08-2010 06:14:01 16.6 C 12.29 g/m*3 16.6 C 0 km/h
33 08-08-2010 06:26:01 16.6 C 12.43 g/m*3 16.6 C 0 km/h
34 08-08-2010 06:38:02 16.6 C 12.57 g/m*3 16.6 C 0 km/h
35 08-08-2010 06:50:01 16.7 C 12.79 g/m*3 16.7 C 0 km/h
36 08-08-2010 07:02:02 16.5 C 12.64 g/m*3 16.5 C 0 km/h
37 08-08-2010 07:14:02 16.4 C 12.7 g/m*3 16.4 C 0 km/h
38 08-08-2010 07:26:01 16.6 C 13 g/m*3 16.6 C 0 km/h
39 08-08-2010 07:38:02 16.8 C 13.15 g/m*3 16.8 C 0 km/h
40 08-08-2010 07:50:01 17 C 13.31 g/m*3 17 C 0 km/h
41 08-08-2010 08:02:02 17 C 13.31 g/m*3 17 C 0 km/h
42 08-08-2010 08:14:02 17 C 13.31 g/m*3 17 C 0 km/h
43 08-08-2010 08:26:01 17.3 C 13.55 g/m*3 17.3 C 0 km/h
44 08-08-2010 08:38:02 17.2 C 13.47 g/m*3 17.2 C 0 km/h
45 08-08-2010 08:50:01 17.5 C 13.72 g/m*3 17.5 C 0 km/h
46 08-08-2010 09:02:02 17.6 C 13.65 g/m*3 17.6 C 0 km/h
47 08-08-2010 09:14:02 17.5 C 13.42 g/m*3 17.5 C 0 km/h
48 08-08-2010 09:26:01 17.5 C 13.27 g/m*3 17.5 C 0 km/h
49 08-08-2010 09:38:01 17.6 C 13.2 g/m*3 17.6 C 0 km/h
50 08-08-2010 09:50:01 18 C 13.21 g/m*3 18 C 0 km/h
Sensor: Nr:Datum:Temp:Abs-Feuchte:Windchill:Wind:
Aussen-T/F 51 08-08-2010 10:02:01 18 C 12.75 g/m*3 18 C 0 km/h
52 08-08-2010 10:14:01 18.1 C 12.67 g/m*3 18.1 C 0 km/h
53 08-08-2010 10:26:02 18.5 C 12.82 g/m*3 18.5 C 0 km/h
54 08-08-2010 10:38:01 19 C 12.55 g/m*3 19 C 0 km/h
55 08-08-2010 10:50:02 18.7 C 12.49 g/m*3 18.7 C 0 km/h
56 08-08-2010 11:02:01 17.1 C 11.94 g/m*3 17.1 C 0 km/h
57 08-08-2010 11:14:01 16.5 C 12.08 g/m*3 16.5 C 0 km/h
58 08-08-2010 11:26:02 16.4 C 12.28 g/m*3 16.4 C 0 km/h
59 08-08-2010 11:38:01 16.1 C 12.06 g/m*3 16.1 C 0 km/h
60 08-08-2010 11:50:02 16.3 C 12.35 g/m*3 16.3 C 0 km/h
61 08-08-2010 12:02:01 16.2 C 12.27 g/m*3 16.2 C 0 km/h
62 08-08-2010 12:14:01 16.5 C 12.5 g/m*3 16.5 C 0 km/h
63 08-08-2010 12:26:01 16.6 C 12.57 g/m*3 16.6 C 0 km/h
64 08-08-2010 12:38:01 17.1 C 12.96 g/m*3 17.1 C 0 km/h
65 08-08-2010 12:50:02 16.5 C 12.5 g/m*3 16.5 C 0 km/h
66 08-08-2010 13:02:02 16.5 C 12.64 g/m*3 16.5 C 0 km/h
67 08-08-2010 13:14:02 16.4 C 12.56 g/m*3 16.4 C 0 km/h
68 08-08-2010 13:26:01 16.5 C 12.64 g/m*3 16.5 C 0 km/h
69 08-08-2010 13:38:03 17.9 C 13.59 g/m*3 17.9 C 0 km/h
70 08-08-2010 13:50:01 18.5 C 12.82 g/m*3 18.5 C 0 km/h
71 08-08-2010 14:02:01 18.7 C 12.65 g/m*3 18.7 C 0 km/h
72 08-08-2010 14:14:01 18.9 C 12.47 g/m*3 18.9 C 0 km/h
73 08-08-2010 14:26:02 18.9 C 12.64 g/m*3 18.9 C 0 km/h
74 08-08-2010 14:38:01 19.2 C 12.37 g/m*3 19.2 C 0 km/h
75 08-08-2010 14:50:02 19.2 C 12.7 g/m*3 19.2 C 0 km/h
Sensor: Nr:Datum:Temp:Abs-Feuchte:Windchill:Wind:
Aussen-T/F 76 08-08-2010 15:02:01 18.9 C 12.8 g/m*3 18.9 C 0 km/h
77 08-08-2010 15:14:01 19.5 C 12.59 g/m*3 19.5 C 0 km/h
78 08-08-2010 15:26:02 20.2 C 12.41 g/m*3 20.2 C 0 km/h
79 08-08-2010 15:38:01 21 C 13.19 g/m*3 21 C 0 km/h
80 08-08-2010 15:50:02 21.3 C 11.37 g/m*3 21.3 C 0 km/h
81 08-08-2010 16:02:01 20.7 C 11.88 g/m*3 20.7 C 0 km/h
82 08-08-2010 16:14:01 20 C 12.27 g/m*3 20 C 0 km/h
83 08-08-2010 16:26:01 19.5 C 12.42 g/m*3 19.5 C 0 km/h
84 08-08-2010 16:38:02 19.6 C 12.49 g/m*3 19.6 C 0 km/h
85 08-08-2010 16:50:01 19.9 C 12.71 g/m*3 19.9 C 0 km/h
86 08-08-2010 17:02:02 21.4 C 11.81 g/m*3 21.4 C 0 km/h
87 08-08-2010 17:14:02 21.3 C 12.3 g/m*3 21.3 C 0 km/h
88 08-08-2010 17:26:01 21.4 C 12.37 g/m*3 21.4 C 0 km/h
89 08-08-2010 17:38:02 22 C 12.23 g/m*3 22 C 0 km/h
90 08-08-2010 17:50:01 22.3 C 11.26 g/m*3 22.3 C 0 km/h
91 08-08-2010 18:02:02 22.2 C 9.42 g/m*3 22.2 C 0 km/h
92 08-08-2010 18:14:02 21.3 C 9.88 g/m*3 21.3 C 0 km/h
93 08-08-2010 18:27:01 21.2 C 9.82 g/m*3 21.2 C 0 km/h
94 08-08-2010 18:38:01 20.9 C 10.56 g/m*3 20.9 C 0 km/h
95 08-08-2010 18:51:01 21.5 C 11.31 g/m*3 21.5 C 0 km/h
96 08-08-2010 19:03:01 21.7 C 9.92 g/m*3 21.7 C 0 km/h
97 08-08-2010 19:14:02 20.8 C 10.5 g/m*3 20.8 C 0 km/h
98 08-08-2010 19:26:02 20 C 10.71 g/m*3 20 C 0 km/h
99 08-08-2010 19:39:01 19 C 10.76 g/m*3 19 C 0 km/h
100 08-08-2010 19:50:02 18.4 C 11.64 g/m*3 18.4 C 0 km/h
Sensor: Nr:Datum:Temp:Abs-Feuchte:Windchill:Wind:
Aussen-T/F 101 08-08-2010 20:03:01 18.1 C 11.9 g/m*3 18.1 C 0 km/h
102 08-08-2010 20:15:01 17.7 C 11.92 g/m*3 17.7 C 0 km/h
103 08-08-2010 20:27:02 17.5 C 11.78 g/m*3 17.5 C 0 km/h
104 08-08-2010 20:39:01 17.6 C 11.85 g/m*3 17.6 C 0 km/h
105 08-08-2010 20:51:02 17.7 C 11.62 g/m*3 17.7 C 0 km/h
106 08-08-2010 21:03:01 17.7 C 11.62 g/m*3 17.7 C 0 km/h
107 08-08-2010 21:15:01 17.6 C 11.4 g/m*3 17.6 C 0 km/h
108 08-08-2010 21:27:01 17.5 C 11.33 g/m*3 17.5 C 0 km/h
109 08-08-2010 21:39:01 17.3 C 11.34 g/m*3 17.3 C 0 km/h
110 08-08-2010 21:51:01 17.2 C 11.42 g/m*3 17.2 C 0 km/h
111 08-08-2010 22:03:01 17.2 C 11.42 g/m*3 17.2 C 0 km/h
112 08-08-2010 22:15:01 17.2 C 11.42 g/m*3 17.2 C 0 km/h
113 08-08-2010 22:27:01 17.1 C 11.5 g/m*3 17.1 C 0 km/h
114 08-08-2010 22:39:01 17.1 C 11.5 g/m*3 17.1 C 0 km/h
115 08-08-2010 22:51:01 16.9 C 11.65 g/m*3 16.9 C 0 km/h
116 08-08-2010 23:03:01 17 C 11.43 g/m*3 17 C 0 km/h
117 08-08-2010 23:15:01 16.9 C 11.65 g/m*3 16.9 C 0 km/h
118 08-08-2010 23:27:01 16.6 C 11.58 g/m*3 16.6 C 0 km/h
119 08-08-2010 23:39:01 16.5 C 11.8 g/m*3 16.5 C 0 km/h
120 08-08-2010 23:51:01 16.5 C 11.94 g/m*3 16.5 C 0 km/h

Legende:
   Min
   Max


Maximal/Minimal-Werte vom 08.08.2010 - 08.08.2010

Sensor Min Max Avg
Temp
(Aussen-T/F)
16.1 °C
08-08-2010  11:38:01
22.3 °C
08-08-2010  17:50:01
18.49 °C
Abs-Feuchte
(Aussen-T/F)
7.78 g/m*3
08-08-2010  00:14:02
13.72 g/m*3
08-08-2010  08:50:01
11.45 g/m*3
Windchill
(Aussen-T/F)
16.1 C
08-08-2010  11:38:01
22.3 C
08-08-2010  17:50:01
18.33 C

Die Daten stammen von einer Davis Vantage Pro 2 Wetter-Station und werden unter Linux mit der Software wview2wettercgi und aufbereitet. Alle Angaben erfolgen ohne Gewähr für ihre Vollständigkeit oder Richtigkeit.
Kontakt: Rainer Krienke krienke@uni-koblenz.de . Meine Webseiten an der Uni Koblenz oder privat.
Version: $Revision: 0.78 $